createdAt,value
2023-05-01T00:01:53.619Z,100681.13
2023-05-01T00:04:23.589Z,100686.53
2023-05-01T00:06:52.001Z,100686.91
2023-05-01T00:09:20.470Z,100682.84
2023-05-01T00:11:48.634Z,100683.19
2023-05-01T00:14:16.612Z,100680.13
2023-05-01T00:16:46.357Z,100684.38
2023-05-01T00:19:18.495Z,100687.59
2023-05-01T00:21:48.503Z,100685.53
2023-05-01T00:24:17.327Z,100688.94
2023-05-01T00:26:45.705Z,100679.28
2023-05-01T00:29:14.473Z,100679.28
2023-05-01T00:31:43.540Z,100680.13
2023-05-01T00:34:11.835Z,100677.59
2023-05-01T00:36:39.992Z,100676.75
2023-05-01T00:39:09.928Z,100682.19
2023-05-01T00:41:38.344Z,100674.22
2023-05-01T00:44:06.828Z,100683.88
2023-05-01T00:46:35.556Z,100678.81
2023-05-01T00:49:04.058Z,100677.59
2023-05-01T00:51:33.165Z,100675.94
2023-05-01T00:54:01.660Z,100676.41
2023-05-01T00:56:32.185Z,100673.03
2023-05-01T00:59:01.184Z,100675.41
2023-05-01T01:01:29.771Z,100675.41
2023-05-01T01:03:58.214Z,100662.88
2023-05-01T01:06:32.443Z,100667.94
2023-05-01T01:09:08.081Z,100664.56
2023-05-01T01:11:42.085Z,100669.81
2023-05-01T01:14:13.264Z,100662.53
2023-05-01T01:16:46.536Z,100666.44
2023-05-01T01:19:30.556Z,100668.63
2023-05-01T01:22:03.943Z,100658.81
2023-05-01T01:24:47.846Z,100662.53
2023-05-01T01:27:45.364Z,100663.22
2023-05-01T01:30:27.912Z,100648.50
2023-05-01T01:33:02.227Z,100650.19
2023-05-01T01:35:33.268Z,100651.03
2023-05-01T01:38:02.983Z,100643.72
2023-05-01T01:40:34.940Z,100644.59
2023-05-01T01:43:05.114Z,100647.31
2023-05-01T01:45:35.971Z,100638.84
2023-05-01T01:48:04.396Z,100638.19
2023-05-01T01:50:36.536Z,100632.78
2023-05-01T01:53:06.629Z,100633.78
2023-05-01T01:55:37.559Z,100621.59
2023-05-01T01:58:07.381Z,100623.28
2023-05-01T02:00:36.668Z,100623.28
2023-05-01T02:03:05.004Z,100623.97
2023-05-01T02:05:35.865Z,100622.59
2023-05-01T02:08:05.540Z,100624.31
2023-05-01T02:10:34.737Z,100620.59
2023-05-01T02:13:03.117Z,100614.81
2023-05-01T02:15:31.840Z,100614.00
2023-05-01T02:18:02.850Z,100615.53
2023-05-01T02:20:31.583Z,100618.25
2023-05-01T02:23:01.292Z,100624.66
2023-05-01T02:25:33.098Z,100618.59
2023-05-01T02:28:03.188Z,100624.34
2023-05-01T02:30:31.696Z,100626.34
2023-05-01T02:33:00.857Z,100627.53
2023-05-01T02:35:29.129Z,100635.16
2023-05-01T02:37:57.441Z,100631.44
2023-05-01T02:40:27.923Z,100636.34
2023-05-01T02:42:58.986Z,100638.72
2023-05-01T02:45:27.193Z,100648.53
2023-05-01T02:47:57.675Z,100645.47
2023-05-01T02:50:26.622Z,100649.38
2023-05-01T02:52:55.398Z,100649.38
2023-05-01T02:55:35.506Z,100651.41
2023-05-01T02:58:03.606Z,100653.09
2023-05-01T03:00:31.834Z,100652.78
2023-05-01T03:03:00.315Z,100663.59
2023-05-01T03:05:28.782Z,100667.13
2023-05-01T03:07:57.210Z,100667.47
2023-05-01T03:10:25.256Z,100665.94
2023-05-01T03:12:55.069Z,100676.44
2023-05-01T03:15:23.177Z,100677.97
2023-05-01T03:17:51.934Z,100672.72
2023-05-01T03:20:20.077Z,100682.19
2023-05-01T03:22:48.183Z,100679.66
2023-05-01T03:25:16.408Z,100681.00
2023-05-01T03:27:44.604Z,100683.19
2023-05-01T03:30:14.571Z,100680.84
2023-05-01T03:32:43.609Z,100677.13
2023-05-01T03:35:19.684Z,100685.91
2023-05-01T03:37:48.070Z,100695.91
2023-05-01T03:40:27.817Z,100692.50
2023-05-01T03:43:34.450Z,100695.91
2023-05-01T03:46:09.617Z,100696.72
2023-05-01T03:48:38.222Z,100695.72
2023-05-01T03:51:06.804Z,100708.06
2023-05-01T03:53:36.794Z,100710.59
2023-05-01T03:56:07.709Z,100708.56
2023-05-01T03:58:36.325Z,100703.16
2023-05-01T04:01:05.694Z,100703.16
2023-05-01T04:03:37.514Z,100695.19
2023-05-01T04:06:06.449Z,100705.19
2023-05-01T04:08:34.563Z,100701.47
2023-05-01T04:11:03.068Z,100700.13
2023-05-01T04:13:32.336Z,100703.00
2023-05-01T04:16:00.562Z,100702.84
2023-05-01T04:18:29.238Z,100705.88
2023-05-01T04:21:02.087Z,100699.13
2023-05-01T04:23:30.417Z,100694.72
2023-05-01T04:26:00.862Z,100699.44
2023-05-01T04:28:31.152Z,100701.66
2023-05-01T04:30:59.441Z,100707.91
2023-05-01T04:33:28.486Z,100715.34
2023-05-01T04:35:56.886Z,100715.66
2023-05-01T04:38:27.137Z,100716.19
2023-05-01T04:40:56.822Z,100722.28
2023-05-01T04:43:24.997Z,100716.00
2023-05-01T04:45:53.432Z,100727.88
2023-05-01T04:48:21.886Z,100723.97
2023-05-01T04:50:50.330Z,100728.00
2023-05-01T04:53:18.861Z,100719.41
2023-05-01T04:55:48.788Z,100725.50
2023-05-01T04:58:18.707Z,100725.50
2023-05-01T05:00:50.611Z,100722.44
2023-05-01T05:03:22.827Z,100723.31
2023-05-01T05:05:51.144Z,100723.47
2023-05-01T05:08:19.254Z,100721.75
2023-05-01T05:11:01.292Z,100730.56
2023-05-01T05:13:38.706Z,100726.84
2023-05-01T05:16:12.634Z,100732.25
2023-05-01T05:18:40.934Z,100733.59
2023-05-01T05:21:10.661Z,100742.03
2023-05-01T05:23:42.107Z,100736.97
2023-05-01T05:26:11.832Z,100733.41
2023-05-01T05:28:40.942Z,100734.78
2023-05-01T05:31:09.627Z,100736.63
2023-05-01T05:33:38.786Z,100739.00
2023-05-01T05:36:07.755Z,100734.28
2023-05-01T05:38:42.580Z,100734.28
2023-05-01T05:41:15.190Z,100734.78
2023-05-01T05:43:43.752Z,100733.41
2023-05-01T05:46:11.973Z,100730.88
2023-05-01T05:48:41.625Z,100742.72
2023-05-01T05:51:10.869Z,100735.97
2023-05-01T05:53:39.285Z,100742.03
2023-05-01T05:56:08.379Z,100737.50
2023-05-01T05:58:38.020Z,100748.47
2023-05-01T06:01:09.408Z,100749.19
2023-05-01T06:03:39.733Z,100749.34
2023-05-01T06:06:08.015Z,100751.22
2023-05-01T06:08:37.820Z,100752.22
2023-05-01T06:11:10.212Z,100759.66
2023-05-01T06:13:41.565Z,100752.91
2023-05-01T06:16:09.809Z,100762.22
2023-05-01T06:18:38.084Z,100751.56
2023-05-01T06:21:06.834Z,100761.38
2023-05-01T06:23:35.803Z,100767.81
2023-05-01T06:26:24.768Z,100762.38
2023-05-01T06:28:54.737Z,100765.09
2023-05-01T06:31:23.021Z,100767.28
2023-05-01T06:33:55.385Z,100768.00
2023-05-01T06:36:49.972Z,100770.53
2023-05-01T06:39:18.108Z,100767.47
2023-05-01T06:41:47.231Z,100771.19
2023-05-01T06:44:18.130Z,100773.25
2023-05-01T06:46:46.195Z,100774.59
2023-05-01T06:49:14.773Z,100774.59
2023-05-01T06:51:42.992Z,100781.69
2023-05-01T06:54:15.029Z,100782.38
2023-05-01T06:56:43.436Z,100780.19
2023-05-01T06:59:11.697Z,100779.31
2023-05-01T07:01:41.921Z,100773.22
2023-05-01T07:04:10.270Z,100787.28
2023-05-01T07:06:38.814Z,100775.94
2023-05-01T07:09:08.053Z,100775.75
2023-05-01T07:11:36.889Z,100774.22
2023-05-01T07:14:05.241Z,100770.31
2023-05-01T07:16:33.556Z,100773.38
2023-05-01T07:19:03.513Z,100784.00
2023-05-01T07:21:32.389Z,100782.34
2023-05-01T07:24:00.864Z,100780.41
2023-05-01T07:26:29.394Z,100772.13
2023-05-01T07:28:57.601Z,100766.69
2023-05-01T07:31:25.945Z,100770.06
2023-05-01T07:33:54.378Z,100773.91
2023-05-01T07:36:24.389Z,100774.44
2023-05-01T07:38:52.834Z,100773.69
2023-05-01T07:41:22.797Z,100765.91
2023-05-01T07:43:50.991Z,100772.63
2023-05-01T07:46:19.512Z,100775.41
2023-05-01T07:48:48.370Z,100784.63
2023-05-01T07:51:17.804Z,100788.31
2023-05-01T07:53:48.253Z,100782.47
2023-05-01T07:56:16.730Z,100782.97
2023-05-01T07:58:45.246Z,100788.72
2023-05-01T08:01:13.706Z,100792.16
2023-05-01T08:03:42.319Z,100778.56
2023-05-01T08:06:10.898Z,100771.50
2023-05-01T08:08:39.443Z,100768.00
2023-05-01T08:11:09.544Z,100763.00
2023-05-01T08:13:37.749Z,100761.53
2023-05-01T08:16:06.420Z,100753.09
2023-05-01T08:18:34.841Z,100748.00
2023-05-01T08:21:03.164Z,100757.97
2023-05-01T08:23:31.501Z,100771.38
2023-05-01T08:26:00.239Z,100755.44
2023-05-01T08:28:37.307Z,100749.16
2023-05-01T08:31:05.877Z,100744.47
2023-05-01T08:33:34.206Z,100739.72
2023-05-01T08:36:02.315Z,100737.69
2023-05-01T08:38:30.618Z,100729.72
2023-05-01T08:41:01.599Z,100734.22
2023-05-01T08:43:32.113Z,100735.03
2023-05-01T08:46:01.386Z,100731.78
2023-05-01T08:48:30.152Z,100723.69
2023-05-01T08:50:59.711Z,100717.47
2023-05-01T08:53:28.358Z,100720.00
2023-05-01T08:55:57.875Z,100711.94
2023-05-01T08:58:27.125Z,100706.44
2023-05-01T09:00:58.520Z,100722.03
2023-05-01T09:03:28.591Z,100709.41
2023-05-01T09:05:57.738Z,100708.63
2023-05-01T09:08:25.991Z,100706.22
2023-05-01T09:10:55.815Z,100699.97
2023-05-01T09:13:24.413Z,100716.03
2023-05-01T09:15:52.988Z,100705.91
2023-05-01T09:18:23.905Z,100708.88
2023-05-01T09:20:52.262Z,100700.25
2023-05-01T09:23:20.675Z,100701.69
2023-05-01T09:25:51.911Z,100702.50
2023-05-01T09:28:20.689Z,100704.66
2023-05-01T09:30:49.190Z,100706.78
2023-05-01T09:33:18.346Z,100709.06
2023-05-01T09:35:55.454Z,100702.13
2023-05-01T09:38:24.521Z,100700.47
2023-05-01T09:40:54.259Z,100713.72
2023-05-01T09:43:26.947Z,100711.81
2023-05-01T09:46:03.902Z,100718.34
2023-05-01T09:48:34.982Z,100718.50
2023-05-01T09:51:21.048Z,100726.03
2023-05-01T09:53:49.478Z,100717.16
2023-05-01T09:56:18.074Z,100725.34
2023-05-01T09:58:46.770Z,100727.84
2023-05-01T10:01:15.629Z,100734.56
2023-05-01T10:03:45.072Z,100732.94
2023-05-01T10:06:27.429Z,100744.25
2023-05-01T10:08:55.782Z,100738.78
2023-05-01T10:11:24.279Z,100737.00
2023-05-01T10:14:09.855Z,100745.81
2023-05-01T10:16:39.106Z,100739.78
2023-05-01T10:19:07.940Z,100737.09
2023-05-01T10:21:38.112Z,100734.88
2023-05-01T10:24:07.983Z,100734.09
2023-05-01T10:26:36.756Z,100733.75
2023-05-01T10:29:05.655Z,100733.06
2023-05-01T10:31:34.028Z,100734.00
2023-05-01T10:34:02.955Z,100737.94
2023-05-01T10:36:34.306Z,100737.97
2023-05-01T10:39:04.492Z,100734.63
2023-05-01T10:41:59.970Z,100752.50
2023-05-01T10:44:28.781Z,100745.03
2023-05-01T10:46:57.300Z,100741.19
2023-05-01T10:49:25.894Z,100737.06
2023-05-01T10:52:01.182Z,100733.88
2023-05-01T10:54:32.540Z,100727.91
2023-05-01T10:57:01.577Z,100734.44
2023-05-01T10:59:29.953Z,100742.72
2023-05-01T11:01:58.299Z,100731.56
2023-05-01T11:04:45.643Z,100727.06
2023-05-01T11:07:18.102Z,100731.09
2023-05-01T11:09:49.378Z,100736.38
2023-05-01T11:12:37.902Z,100739.03
2023-05-01T11:15:08.539Z,100739.13
2023-05-01T11:17:46.719Z,100731.13
2023-05-01T11:20:15.454Z,100738.94
2023-05-01T11:22:47.813Z,100740.25
2023-05-01T11:25:21.349Z,100733.97
2023-05-01T11:27:49.903Z,100736.66
2023-05-01T11:30:18.396Z,100739.13
2023-05-01T11:32:47.364Z,100741.06
2023-05-01T11:35:19.741Z,100743.19
2023-05-01T11:37:48.496Z,100754.97
2023-05-01T11:40:25.744Z,100748.16
2023-05-01T11:43:02.976Z,100753.13
2023-05-01T11:45:31.960Z,100748.00
2023-05-01T11:48:03.542Z,100744.94
2023-05-01T11:50:36.295Z,100744.97
2023-05-01T11:53:05.355Z,100741.75
2023-05-01T11:55:35.921Z,100736.25
2023-05-01T11:58:05.114Z,100736.25
2023-05-01T12:00:37.002Z,100739.75
2023-05-01T12:03:06.588Z,100734.19
2023-05-01T12:05:37.368Z,100728.81
2023-05-01T12:08:12.738Z,100731.69
2023-05-01T12:10:43.631Z,100730.28
2023-05-01T12:13:13.132Z,100732.19
2023-05-01T12:15:43.764Z,100725.41
2023-05-01T12:18:13.322Z,100718.34
2023-05-01T12:20:42.103Z,100721.91
2023-05-01T12:23:14.855Z,100720.00
2023-05-01T12:25:47.567Z,100714.44
2023-05-01T12:28:18.658Z,100727.22
2023-05-01T12:30:48.744Z,100728.59
2023-05-01T12:33:18.646Z,100725.69
2023-05-01T12:35:48.943Z,100737.00
2023-05-01T12:38:20.217Z,100721.72
2023-05-01T12:40:54.434Z,100721.72
2023-05-01T12:43:23.389Z,100725.84
2023-05-01T12:45:53.989Z,100719.69
2023-05-01T12:48:22.727Z,100728.19
2023-05-01T12:50:55.051Z,100724.22
2023-05-01T12:53:24.361Z,100722.34
2023-05-01T12:55:55.069Z,100721.88
2023-05-01T12:58:23.675Z,100720.28
2023-05-01T13:00:53.161Z,100731.03
2023-05-01T13:03:24.351Z,100731.47
2023-05-01T13:05:56.668Z,100728.94
2023-05-01T13:08:27.384Z,100730.94
2023-05-01T13:10:58.048Z,100735.53
2023-05-01T13:13:27.105Z,100729.75
2023-05-01T13:15:56.344Z,100730.91
2023-05-01T13:18:24.779Z,100722.22
2023-05-01T13:20:56.048Z,100722.78
2023-05-01T13:23:24.347Z,100725.72
2023-05-01T13:25:58.935Z,100719.47
2023-05-01T13:28:30.031Z,100728.69
2023-05-01T13:30:58.616Z,100729.75
2023-05-01T13:33:26.990Z,100731.03
2023-05-01T13:35:55.413Z,100730.63
2023-05-01T13:38:25.226Z,100735.59
2023-05-01T13:40:53.578Z,100737.09
2023-05-01T13:43:24.150Z,100739.97
2023-05-01T13:45:52.783Z,100736.03
2023-05-01T13:48:23.419Z,100738.47
2023-05-01T13:50:54.321Z,100739.69
2023-05-01T13:53:25.878Z,100735.31
2023-05-01T13:55:54.276Z,100727.53
2023-05-01T13:58:24.359Z,100737.13
2023-05-01T14:00:52.960Z,100740.34
2023-05-01T14:03:22.495Z,100740.50
2023-05-01T14:05:51.053Z,100741.03
2023-05-01T14:08:22.627Z,100744.06
2023-05-01T14:10:51.157Z,100745.25
2023-05-01T14:13:20.230Z,100745.84
2023-05-01T14:15:50.345Z,100756.41
2023-05-01T14:18:18.566Z,100755.47
2023-05-01T14:20:49.491Z,100762.47
2023-05-01T14:23:20.577Z,100763.72
2023-05-01T14:25:50.478Z,100760.28
2023-05-01T14:28:18.975Z,100758.47
2023-05-01T14:30:49.353Z,100764.03
2023-05-01T14:33:19.472Z,100765.66
2023-05-01T14:35:51.268Z,100758.72
2023-05-01T14:38:20.731Z,100757.97
2023-05-01T14:40:49.383Z,100763.13
2023-05-01T14:43:18.794Z,100763.75
2023-05-01T14:45:49.931Z,100754.94
2023-05-01T14:48:22.462Z,100756.66
2023-05-01T14:50:51.118Z,100760.91
2023-05-01T14:53:19.467Z,100764.16
2023-05-01T14:55:51.201Z,100754.63
2023-05-01T14:58:19.906Z,100760.78
2023-05-01T15:00:48.039Z,100764.31
2023-05-01T15:03:17.008Z,100772.03
2023-05-01T15:05:47.054Z,100760.50
2023-05-01T15:08:17.683Z,100762.47
2023-05-01T15:10:46.198Z,100764.25
2023-05-01T15:13:14.674Z,100766.19
2023-05-01T15:15:42.829Z,100767.78
2023-05-01T15:18:11.434Z,100772.00
2023-05-01T15:20:39.819Z,100770.75
2023-05-01T15:23:10.571Z,100771.16
2023-05-01T15:25:38.653Z,100765.56
2023-05-01T15:28:06.830Z,100755.91
2023-05-01T15:30:35.146Z,100756.34
2023-05-01T15:33:04.601Z,100761.63
2023-05-01T15:35:32.821Z,100761.19
2023-05-01T15:38:00.887Z,100756.81
2023-05-01T15:40:30.456Z,100758.88
2023-05-01T15:42:58.715Z,100759.56
2023-05-01T15:45:27.611Z,100762.44
2023-05-01T15:47:55.882Z,100758.63
2023-05-01T15:50:25.068Z,100757.84
2023-05-01T15:52:53.110Z,100764.16
2023-05-01T15:55:21.811Z,100757.41
2023-05-01T15:57:51.719Z,100759.69
2023-05-01T16:00:21.986Z,100761.09
2023-05-01T16:02:50.722Z,100756.28
2023-05-01T16:05:21.377Z,100759.44
2023-05-01T16:07:53.655Z,100759.44
2023-05-01T16:10:22.449Z,100755.47
2023-05-01T16:12:53.803Z,100757.38
2023-05-01T16:15:22.855Z,100763.38
2023-05-01T16:17:51.961Z,100759.44
2023-05-01T16:20:20.294Z,100763.13
2023-05-01T16:22:48.568Z,100766.97
2023-05-01T16:25:16.817Z,100757.63
2023-05-01T16:27:46.679Z,100761.06
2023-05-01T16:30:16.481Z,100762.81
2023-05-01T16:32:44.811Z,100758.72
2023-05-01T16:35:17.752Z,100768.25
2023-05-01T16:37:45.984Z,100757.66
2023-05-01T16:40:17.458Z,100752.53
2023-05-01T16:42:51.855Z,100751.63
2023-05-01T16:45:22.144Z,100759.78
2023-05-01T16:47:50.195Z,100766.41
2023-05-01T16:50:18.900Z,100768.78
2023-05-01T16:52:46.909Z,100768.63
2023-05-01T16:55:15.338Z,100755.63
2023-05-01T16:57:44.496Z,100762.06
2023-05-01T17:00:14.165Z,100765.03
2023-05-01T17:02:44.966Z,100766.63
2023-05-01T17:05:13.066Z,100762.25
2023-05-01T17:07:41.312Z,100760.91
2023-05-01T17:10:10.789Z,100763.78
2023-05-01T17:12:39.013Z,100760.69
2023-05-01T17:15:08.409Z,100767.25
2023-05-01T17:17:37.555Z,100772.72
2023-05-01T17:20:08.423Z,100764.31
2023-05-01T17:22:37.089Z,100767.84
2023-05-01T17:25:06.205Z,100765.56
2023-05-01T17:27:35.928Z,100772.38
2023-05-01T17:30:05.260Z,100776.13
2023-05-01T17:32:37.029Z,100776.94
2023-05-01T17:35:09.027Z,100781.47
2023-05-01T17:37:41.241Z,100779.47
2023-05-01T17:40:15.863Z,100778.03
2023-05-01T17:42:48.610Z,100769.94
2023-05-01T17:45:21.963Z,100775.22
2023-05-01T17:47:54.302Z,100775.66
2023-05-01T17:50:28.831Z,100776.47
2023-05-01T17:53:01.691Z,100775.47
2023-05-01T17:55:37.486Z,100769.66
2023-05-01T17:58:09.643Z,100776.25
2023-05-01T18:00:43.057Z,100781.31
2023-05-01T18:03:16.859Z,100784.34
2023-05-01T18:05:52.866Z,100788.28
2023-05-01T18:08:26.316Z,100794.00
2023-05-01T18:11:00.171Z,100794.19
2023-05-01T18:13:34.607Z,100788.13
2023-05-01T18:16:08.988Z,100788.34
2023-05-01T18:18:42.645Z,100785.44
2023-05-01T18:21:15.859Z,100783.31
2023-05-01T18:23:49.000Z,100780.59
2023-05-01T18:26:21.536Z,100789.22
2023-05-01T18:28:54.981Z,100782.91
2023-05-01T18:31:28.878Z,100793.03
2023-05-01T18:34:03.120Z,100792.41
2023-05-01T18:36:44.814Z,100791.34
2023-05-01T18:39:18.534Z,100789.88
2023-05-01T18:41:47.717Z,100798.50
2023-05-01T18:44:19.005Z,100797.44
2023-05-01T18:46:53.910Z,100804.38
2023-05-01T18:49:28.580Z,100792.97
2023-05-01T18:52:05.112Z,100808.94
2023-05-01T18:54:36.638Z,100804.09
2023-05-01T18:57:09.322Z,100804.25
2023-05-01T18:59:44.738Z,100807.97
2023-05-01T19:02:15.650Z,100806.44
2023-05-01T19:07:21.653Z,100810.28
2023-05-01T19:09:49.969Z,100815.09
2023-05-01T19:12:18.091Z,100815.06
2023-05-01T19:14:46.231Z,100815.44
2023-05-01T19:17:14.268Z,100815.56
2023-05-01T19:19:46.147Z,100823.06
2023-05-01T19:22:17.239Z,100821.53
2023-05-01T19:24:50.857Z,100825.84
2023-05-01T19:27:24.088Z,100821.09
2023-05-01T19:29:56.378Z,100834.38
2023-05-01T19:32:29.913Z,100824.34
2023-05-01T19:35:11.908Z,100835.19
2023-05-01T19:37:45.356Z,100838.28
2023-05-01T19:40:17.686Z,100839.53
2023-05-01T19:42:50.335Z,100843.53
2023-05-01T19:45:23.068Z,100853.75
2023-05-01T19:47:55.980Z,100856.03
2023-05-01T19:50:28.511Z,100860.75
2023-05-01T19:53:00.440Z,100866.03
2023-05-01T19:55:34.868Z,100867.78
2023-05-01T19:58:07.382Z,100878.59
2023-05-01T20:00:39.506Z,100878.63
2023-05-01T20:03:09.680Z,100884.09
2023-05-01T20:05:41.249Z,100891.44
2023-05-01T20:08:14.911Z,100896.34
2023-05-01T20:10:51.213Z,100902.13
2023-05-01T20:13:21.095Z,100910.28
2023-05-01T20:15:53.830Z,100899.97
2023-05-01T20:18:28.076Z,100910.66
2023-05-01T20:21:01.744Z,100918.84
2023-05-01T20:23:32.522Z,100918.50
2023-05-01T20:26:07.274Z,100916.16
2023-05-01T20:28:40.461Z,100918.88
2023-05-01T20:31:15.384Z,100923.81
2023-05-01T20:33:48.241Z,100920.97
2023-05-01T20:36:23.502Z,100927.34
2023-05-01T20:38:59.401Z,100927.00
2023-05-01T20:41:33.625Z,100928.69
2023-05-01T20:44:07.071Z,100936.09
2023-05-01T20:46:40.600Z,100930.81
2023-05-01T20:49:15.740Z,100935.19
2023-05-01T20:51:49.146Z,100943.94
2023-05-01T20:54:21.595Z,100936.59
2023-05-01T20:56:56.416Z,100938.91
2023-05-01T20:59:26.306Z,100950.16
2023-05-01T21:01:58.677Z,100951.97
2023-05-01T21:04:32.240Z,100954.94
2023-05-01T21:07:06.116Z,100956.50
2023-05-01T21:09:39.446Z,100961.31
2023-05-01T21:12:14.455Z,100963.78
2023-05-01T21:14:47.896Z,100965.41
2023-05-01T21:17:22.497Z,100969.75
2023-05-01T21:19:53.577Z,100970.50
2023-05-01T21:22:26.822Z,100965.19
2023-05-01T21:24:58.541Z,100969.50
2023-05-01T21:27:28.427Z,100976.66
2023-05-01T21:29:59.418Z,100973.03
2023-05-01T21:32:33.411Z,100979.50
2023-05-01T21:35:06.340Z,100982.78
2023-05-01T21:37:36.736Z,100979.88
2023-05-01T21:40:08.544Z,100980.59
2023-05-01T21:42:40.991Z,100991.16
2023-05-01T21:45:10.583Z,100990.44
2023-05-01T21:47:41.619Z,100993.44
2023-05-01T21:50:14.292Z,100985.25
2023-05-01T21:52:43.717Z,100981.28
2023-05-01T21:55:15.206Z,100984.75
2023-05-01T21:57:50.484Z,100989.03
2023-05-01T22:00:19.400Z,100993.84
2023-05-01T22:02:48.685Z,100996.16
2023-05-01T22:05:20.563Z,100995.56
2023-05-01T22:07:48.801Z,101003.28
2023-05-01T22:10:21.104Z,101002.56
2023-05-01T22:12:56.805Z,100998.06
2023-05-01T22:15:31.410Z,101001.59
2023-05-01T22:18:04.369Z,100999.88
2023-05-01T22:20:38.566Z,101000.88
2023-05-01T22:23:12.200Z,101007.00
2023-05-01T22:25:46.907Z,101003.31
2023-05-01T22:28:23.461Z,101007.97
2023-05-01T22:30:56.691Z,101008.97
2023-05-01T22:33:29.818Z,101007.53
2023-05-01T22:35:59.807Z,100999.75
2023-05-01T22:38:31.496Z,101008.97
2023-05-01T22:41:03.730Z,101005.44
2023-05-01T22:43:39.100Z,101006.28
2023-05-01T22:46:12.510Z,101007.84
2023-05-01T22:48:46.823Z,101009.50
2023-05-01T22:51:16.467Z,101016.31
2023-05-01T22:53:47.469Z,101016.06
2023-05-01T22:56:17.202Z,101010.66
2023-05-01T22:58:50.512Z,101022.44
2023-05-01T23:01:24.739Z,101031.09
2023-05-01T23:03:58.968Z,101026.28
2023-05-01T23:06:32.792Z,101028.56
2023-05-01T23:09:07.080Z,101038.19
2023-05-01T23:11:39.985Z,101032.50
2023-05-01T23:14:14.414Z,101030.81
2023-05-01T23:16:47.364Z,101027.13
2023-05-01T23:19:22.920Z,101026.28
2023-05-01T23:22:05.715Z,101025.41
2023-05-01T23:24:42.499Z,101020.03
2023-05-01T23:27:16.522Z,101020.03
2023-05-01T23:29:51.390Z,101025.41
2023-05-01T23:32:23.874Z,101023.72
2023-05-01T23:34:52.498Z,101017.75
2023-05-01T23:37:21.194Z,101023.16
2023-05-01T23:39:49.403Z,101024.00
2023-05-01T23:42:17.518Z,101022.59
2023-05-01T23:44:45.682Z,101028.25
2023-05-01T23:47:15.698Z,101021.19
2023-05-01T23:49:43.780Z,101020.59
2023-05-01T23:52:11.808Z,101030.81
2023-05-01T23:54:39.903Z,101029.53
2023-05-01T23:57:08.467Z,101029.81
2023-05-01T23:59:37.012Z,101030.25
